Time;durP1;ratioP1;P1;durP2;ratioP2;P2;SDS_P1;SDS_P2;PMS_P1;PMS_P2;Temp;Humidity;BMP_temperature;BMP_pressure;BME280_temperature;BME280_humidity;BME280_pressure;Samples;Min_cycle;Max_cycle;Signal;HPM_P1;HPM_P2
2021/12/25 00:02:16;;;;;;;1.50;0.80;;;;;;;-1.10;100.00;101072.22;5023986;28;20292;-75
2021/12/25 00:04:41;;;;;;;1.40;0.67;;;;;;;-1.20;100.00;101083.47;5025712;28;20921;-75
2021/12/25 00:07:06;;;;;;;1.50;0.67;;;;;;;-0.97;100.00;101137.00;5028803;28;20246;-75
2021/12/25 00:09:32;;;;;;;2.73;0.90;;;;;;;-1.52;100.00;101028.00;5024036;28;20257;-75
2021/12/25 00:11:57;;;;;;;8.27;0.90;;;;;;;-1.64;100.00;101013.16;5021413;28;20203;-75
2021/12/25 00:14:22;;;;;;;3.43;0.83;;;;;;;-1.14;100.00;101090.06;5025708;28;20231;-75
2021/12/25 00:16:48;;;;;;;0.80;0.70;;;;;;;-1.34;100.00;101040.72;5023303;28;20230;-74
2021/12/25 00:19:14;;;;;;;2.30;0.80;;;;;;;-1.23;100.00;101098.66;5025675;28;20617;-74
2021/12/25 00:21:39;;;;;;;1.70;0.70;;;;;;;-1.41;100.00;101066.69;5026633;28;20232;-75
2021/12/25 00:24:05;;;;;;;1.13;0.90;;;;;;;-1.71;100.00;101027.72;5021166;28;20317;-75
2021/12/25 00:26:52;;;;;;;1.70;0.70;;;;;;;-1.36;100.00;101059.25;5029246;28;20185;-75
2021/12/25 00:34:47;;;;;;;1.10;0.90;;;;;;;-1.03;100.00;101155.06;5027460;28;20528;-77
2021/12/25 00:37:12;;;;;;;1.60;0.60;;;;;;;-0.84;100.00;101160.63;5027668;28;20488;-76
2021/12/25 00:39:38;;;;;;;3.33;1.20;;;;;;;-1.22;100.00;101127.47;5021415;28;20874;-76
2021/12/25 00:42:06;;;;;;;2.73;0.90;;;;;;;-1.00;100.00;101162.72;5025508;28;20184;-77
2021/12/25 00:44:33;;;;;;;2.43;0.77;;;;;;;-1.40;100.00;101165.72;5025392;28;20212;-76
2021/12/25 00:46:58;;;;;;;2.87;0.80;;;;;;;-1.35;100.00;101176.75;5026556;28;20857;-76
2021/12/25 00:49:25;;;;;;;2.10;0.70;;;;;;;-1.43;100.00;101176.47;5019695;28;20484;-75
2021/12/25 00:51:51;;;;;;;1.63;0.87;;;;;;;-1.06;100.00;101177.19;5019403;28;20184;-76
2021/12/25 00:54:17;;;;;;;1.60;0.77;;;;;;;-1.31;100.00;101177.34;5022937;28;20470;-76
2021/12/25 00:56:42;;;;;;;1.80;1.30;;;;;;;-1.68;100.00;101154.59;5023660;28;20796;-76
2021/12/25 00:59:08;;;;;;;2.70;0.80;;;;;;;-1.36;100.00;101153.97;5019014;28;21020;-77
2021/12/25 01:01:35;;;;;;;1.50;0.77;;;;;;;-0.94;100.00;101183.34;5022405;28;20208;-77
2021/12/25 01:04:00;;;;;;;3.83;0.90;;;;;;;-1.30;100.00;101193.03;5021244;28;20994;-76
2021/12/25 01:06:25;;;;;;;1.70;0.90;;;;;;;-1.54;100.00;101163.25;5022870;28;20447;-76
2021/12/25 01:08:51;;;;;;;1.17;0.60;;;;;;;-2.32;100.00;101073.31;5032666;28;20188;-75
2021/12/25 01:11:16;;;;;;;2.13;0.80;;;;;;;-1.51;100.00;101141.97;5020364;28;20192;-76
2021/12/25 01:13:48;;;;;;;0.67;0.60;;;;;;;-3.00;100.00;100935.50;5021373;28;20228;-76
2021/12/25 01:37:15;;;;;;;1.47;0.70;;;;;;;-1.74;100.00;101209.41;5021038;28;20426;-74
2021/12/25 01:50:09;;;;;;;2.47;0.80;;;;;;;-1.53;100.00;101217.53;5022678;28;20537;-75
2021/12/25 01:52:35;;;;;;;4.67;0.90;;;;;;;-1.61;100.00;101233.88;5034996;28;20824;-76
2021/12/25 01:55:13;;;;;;;1.67;0.67;;;;;;;-1.61;100.00;101229.47;5024230;28;20675;-74
2021/12/25 01:57:40;;;;;;;1.57;0.90;;;;;;;-1.72;100.00;101231.19;5030724;28;20875;-74
2021/12/25 02:00:11;;;;;;;0.83;0.80;;;;;;;-1.96;100.00;101187.28;5023253;28;20470;-75
2021/12/25 02:02:37;;;;;;;1.33;0.60;;;;;;;-2.05;100.00;101182.69;5021577;28;20530;-74
2021/12/25 02:05:04;;;;;;;0.63;0.50;;;;;;;-2.51;100.00;101134.22;5020954;28;20459;-74
2021/12/25 02:07:29;;;;;;;1.37;0.60;;;;;;;-2.36;100.00;101134.09;5023635;28;20188;-74
2021/12/25 02:09:55;;;;;;;5.70;0.90;;;;;;;-2.17;100.00;101154.63;5027630;28;20469;-74
2021/12/25 02:12:20;;;;;;;0.70;0.70;;;;;;;-2.11;100.00;101136.66;5024402;28;20198;-74
2021/12/25 02:14:47;;;;;;;1.27;0.60;;;;;;;-2.57;100.00;101126.75;5023510;28;20210;-75
2021/12/25 02:19:54;;;;;;;0.63;0.60;;;;;;;-2.73;100.00;101111.22;5023404;28;20937;-74
2021/12/25 02:22:24;;;;;;;1.33;0.60;;;;;;;-2.08;100.00;101236.31;5020448;28;20434;-74
2021/12/25 02:24:49;;;;;;;2.93;1.17;;;;;;;-2.82;100.00;101111.03;5020920;28;20564;-74
2021/12/25 02:27:14;;;;;;;0.50;0.50;;;;;;;-2.29;100.00;101201.00;5023140;28;21071;-75
2021/12/25 02:29:40;;;;;;;3.13;0.80;;;;;;;-2.15;100.00;101231.59;5023402;28;20271;-75
2021/12/25 02:32:07;;;;;;;1.37;0.70;;;;;;;-2.49;100.00;101199.75;5031133;28;20188;-75
2021/12/25 02:34:33;;;;;;;1.33;0.57;;;;;;;-2.86;100.00;101139.28;5024574;28;20218;-75
2021/12/25 02:36:58;;;;;;;0.40;0.40;;;;;;;-2.49;100.00;101144.59;5019015;28;20454;-74
2021/12/25 02:39:24;;;;;;;1.37;0.70;;;;;;;-2.38;100.00;101220.88;5023855;28;20406;-74
2021/12/25 02:41:50;;;;;;;4.03;0.70;;;;;;;-2.16;100.00;101259.66;5020832;28;20568;-75
2021/12/25 02:44:16;;;;;;;0.70;0.70;;;;;;;-3.03;100.00;101153.53;5016586;28;20691;-75
2021/12/25 02:46:41;;;;;;;0.70;0.63;;;;;;;-2.19;100.00;101273.00;5023392;28;20456;-74
2021/12/25 02:49:13;;;;;;;2.60;0.60;;;;;;;-2.42;100.00;101189.69;5019563;28;20184;-74
2021/12/25 02:51:43;;;;;;;1.67;1.10;;;;;;;-2.35;100.00;101267.94;5017431;28;20243;-74
2021/12/25 02:54:08;;;;;;;2.97;0.70;;;;;;;-2.91;100.00;101193.03;5019965;28;20469;-74
2021/12/25 02:56:34;;;;;;;0.80;0.80;;;;;;;-2.74;100.00;101211.09;5019111;28;21275;-74
2021/12/25 02:58:59;;;;;;;2.07;0.80;;;;;;;-2.61;100.00;101256.59;5022677;28;20188;-73
2021/12/25 03:01:25;;;;;;;1.53;0.67;;;;;;;-2.70;100.00;101215.19;5017602;28;20204;-74
2021/12/25 03:03:50;;;;;;;0.90;0.50;;;;;;;-2.67;100.00;101180.00;5018854;28;20349;-74
2021/12/25 03:06:16;;;;;;;2.50;0.53;;;;;;;-2.31;100.00;101242.34;5022172;28;20982;-74
2021/12/25 03:08:42;;;;;;;0.60;0.60;;;;;;;-2.79;100.00;101208.78;5021420;28;20796;-74
2021/12/25 03:11:09;;;;;;;1.30;0.60;;;;;;;-2.82;100.00;101192.41;5019401;28;20234;-74
2021/12/25 03:13:45;;;;;;;0.73;0.63;;;;;;;-2.19;100.00;101270.38;5017373;28;21247;-75
2021/12/25 03:16:14;;;;;;;0.50;0.50;;;;;;;-2.41;100.00;101275.41;5018768;28;20438;-73
2021/12/25 03:18:49;;;;;;;0.83;0.50;;;;;;;-2.79;100.00;101221.06;5023093;28;20461;-74
2021/12/25 03:21:17;;;;;;;0.77;0.60;;;;;;;-2.91;100.00;101204.38;5019159;28;20683;-74
2021/12/25 03:23:43;;;;;;;1.10;0.63;;;;;;;-2.50;100.00;101264.59;5019297;28;20474;-74
2021/12/25 03:26:09;;;;;;;1.60;0.57;;;;;;;-3.17;100.00;101172.00;5021064;28;20530;-74
2021/12/25 03:28:38;;;;;;;0.97;0.60;;;;;;;-3.07;100.00;101204.53;5022871;28;20868;-74
2021/12/25 03:31:13;;;;;;;1.50;0.60;;;;;;;-2.87;100.00;101274.09;5025158;28;20435;-74
2021/12/25 03:33:38;;;;;;;0.80;0.63;;;;;;;-3.10;100.00;101225.72;5021539;28;21048;-73
2021/12/25 03:36:04;;;;;;;0.70;0.70;;;;;;;-3.15;100.00;101213.84;5023247;28;20582;-74
2021/12/25 03:38:30;;;;;;;1.37;0.90;;;;;;;-3.54;100.00;101161.28;5021587;28;20191;-74
2021/12/25 03:40:56;;;;;;;1.57;0.70;;;;;;;-3.31;100.00;101200.91;5020579;28;20199;-74
2021/12/25 03:43:22;;;;;;;2.03;0.70;;;;;;;-3.55;100.00;101145.66;5025056;28;20445;-73
2021/12/25 03:45:49;;;;;;;0.90;0.60;;;;;;;-2.67;100.00;101277.19;5018996;28;20651;-74
2021/12/25 03:48:30;;;;;;;2.10;0.73;;;;;;;-2.76;100.00;101265.50;5023216;28;20652;-74
2021/12/25 03:59:07;;;;;;;0.90;0.60;;;;;;;-2.85;100.00;101274.84;5025070;28;20449;-74
2021/12/25 04:01:45;;;;;;;0.70;0.60;;;;;;;-2.74;100.00;101280.22;5023766;28;20531;-73
2021/12/25 04:04:19;;;;;;;1.60;0.70;;;;;;;-2.71;100.00;101281.78;5022631;28;20529;-73
2021/12/25 04:07:01;;;;;;;1.03;0.60;;;;;;;-3.20;100.00;101204.50;5022045;28;20422;-74
2021/12/25 04:09:29;;;;;;;2.53;0.80;;;;;;;-3.14;100.00;101240.00;5025609;28;20956;-74
2021/12/25 04:11:57;;;;;;;2.50;0.70;;;;;;;-3.53;100.00;101144.63;5021483;28;20950;-74
2021/12/25 04:14:23;;;;;;;2.27;0.60;;;;;;;-3.08;100.00;101284.22;5025970;28;20954;-74
2021/12/25 04:16:48;;;;;;;0.70;0.60;;;;;;;-2.92;100.00;101291.06;5024197;28;20442;-74
2021/12/25 04:19:15;;;;;;;0.67;0.67;;;;;;;-3.29;100.00;101223.47;5025227;28;20556;-73
2021/12/25 04:22:05;;;;;;;1.47;0.70;;;;;;;-3.35;100.00;101258.00;5021468;28;20212;-74
2021/12/25 04:24:30;;;;;;;0.80;0.50;;;;;;;-3.37;100.00;101288.72;5019148;28;20473;-74
2021/12/25 04:26:56;;;;;;;1.10;0.67;;;;;;;-4.80;100.00;101050.56;5027639;28;20434;-74
2021/12/25 05:04:15;;;;;;;0.70;0.60;;;;;;;-3.66;100.00;101322.03;5023290;28;20757;-76
2021/12/25 05:06:41;;;;;;;0.50;0.50;;;;;;;-4.14;100.00;101262.06;5030444;28;20438;-73
2021/12/25 05:09:07;;;;;;;0.93;0.80;;;;;;;-4.27;100.00;101231.47;5020167;28;21398;-73
2021/12/25 05:11:32;;;;;;;1.80;0.70;;;;;;;-3.89;100.00;101307.72;5022947;28;20179;-74
2021/12/25 05:13:57;;;;;;;1.43;0.77;;;;;;;-4.21;100.00;101252.88;5020756;28;20216;-74
2021/12/25 05:16:23;;;;;;;0.80;0.60;;;;;;;-3.66;100.00;101354.31;5026210;28;20637;-76
2021/12/25 05:18:50;;;;;;;1.33;0.60;;;;;;;-3.51;100.00;101336.78;5023229;28;20185;-76
2021/12/25 05:21:18;;;;;;;1.50;0.70;;;;;;;-3.95;100.00;101306.31;5020847;28;21070;-76
2021/12/25 05:23:44;;;;;;;0.77;0.70;;;;;;;-4.91;100.00;101136.72;5022943;28;20496;-75
2021/12/25 05:26:09;;;;;;;0.97;0.80;;;;;;;-4.36;100.00;101259.03;5026239;28;20433;-76
2021/12/25 05:28:43;;;;;;;0.60;0.60;;;;;;;-3.66;100.00;101363.97;5025971;28;20458;-75
2021/12/25 05:31:11;;;;;;;1.23;0.70;;;;;;;-3.44;100.00;101348.59;5023392;28;20184;-75
2021/12/25 05:33:36;;;;;;;0.70;0.70;;;;;;;-3.66;100.00;101348.25;5023648;28;20492;-75
2021/12/25 05:36:03;;;;;;;0.70;0.60;;;;;;;-3.74;100.00;101350.47;5019395;28;20434;-75
2021/12/25 05:38:29;;;;;;;1.70;0.83;;;;;;;-4.17;100.00;101267.44;5020658;28;20641;-75
2021/12/25 05:40:55;;;;;;;3.47;0.83;;;;;;;-4.11;100.00;101284.56;5022173;28;20481;-76
2021/12/25 05:43:20;;;;;;;1.37;0.70;;;;;;;-4.31;100.00;101225.53;5018432;28;20241;-75
2021/12/25 05:45:46;;;;;;;1.17;0.83;;;;;;;-4.77;100.00;101203.00;5021362;28;20192;-75
2021/12/25 05:48:12;;;;;;;1.20;0.80;;;;;;;-5.04;100.00;101163.59;5024488;28;20575;-75
2021/12/25 05:50:37;;;;;;;1.03;0.70;;;;;;;-3.84;100.00;101365.09;5023601;28;20179;-74
2021/12/25 05:53:05;;;;;;;2.10;0.63;;;;;;;-3.57;100.00;101358.16;5026249;28;20507;-75
2021/12/25 05:55:32;;;;;;;1.83;0.70;;;;;;;-3.53;100.00;101367.53;5021476;28;20282;-75
2021/12/25 05:57:58;;;;;;;0.87;0.70;;;;;;;-4.47;100.00;101236.13;5024150;28;20454;-76
2021/12/25 06:00:24;;;;;;;2.40;0.80;;;;;;;-4.07;100.00;101291.34;5020240;28;20459;-75
2021/12/25 06:02:50;;;;;;;0.80;0.80;;;;;;;-3.76;100.00;101368.06;5019568;28;20435;-77
2021/12/25 06:05:17;;;;;;;4.30;0.80;;;;;;;-4.55;100.00;101220.84;5022298;28;20789;-75
2021/12/25 06:07:42;;;;;;;0.70;0.60;;;;;;;-3.86;100.00;101378.28;5020073;28;20502;-76
2021/12/25 06:10:10;;;;;;;0.70;0.70;;;;;;;-4.40;100.00;101237.41;5037181;28;20904;-76
2021/12/25 06:12:42;;;;;;;0.80;0.73;;;;;;;-3.72;100.00;101361.72;5023392;28;20211;-76
2021/12/25 06:15:10;;;;;;;2.47;0.73;;;;;;;-3.74;100.00;101350.47;5021402;28;20517;-76
2021/12/25 06:17:36;;;;;;;0.97;0.80;;;;;;;-4.58;100.00;101241.16;5033335;28;20497;-76
2021/12/25 06:20:02;;;;;;;2.60;0.90;;;;;;;-4.29;100.00;101286.53;5038302;28;20503;-75
2021/12/25 06:22:27;;;;;;;3.30;0.80;;;;;;;-4.29;100.00;101249.03;5024511;28;20191;-75
2021/12/25 06:24:53;;;;;;;1.40;0.90;;;;;;;-4.29;100.00;101283.91;5030582;28;20474;-75
2021/12/25 06:27:20;;;;;;;1.20;0.73;;;;;;;-3.69;100.00;101380.72;5024832;28;20187;-75
2021/12/25 06:29:46;;;;;;;1.70;0.70;;;;;;;-4.78;100.00;101216.16;5023811;28;20259;-75
2021/12/25 06:32:12;;;;;;;1.90;0.80;;;;;;;-3.73;100.00;101383.63;5024120;28;20457;-75
2021/12/25 06:34:38;;;;;;;1.33;1.10;;;;;;;-4.52;100.00;101260.88;5019191;28;20842;-75
2021/12/25 06:37:03;;;;;;;1.20;1.00;;;;;;;-3.80;100.00;101379.69;5022196;28;20183;-75
2021/12/25 06:39:30;;;;;;;2.63;0.90;;;;;;;-3.75;100.00;101390.75;5024199;28;20442;-75
2021/12/25 06:41:56;;;;;;;2.20;1.20;;;;;;;-3.91;100.00;101360.19;5021060;28;20207;-75
2021/12/25 06:44:24;;;;;;;1.50;0.90;;;;;;;-3.64;100.00;101372.59;5022957;28;20473;-75
2021/12/25 06:46:51;;;;;;;2.17;0.63;;;;;;;-3.65;100.00;101384.00;5022019;28;20186;-75
2021/12/25 06:49:16;;;;;;;3.53;1.23;;;;;;;-4.47;100.00;101309.44;5019414;28;20431;-75
2021/12/25 06:51:42;;;;;;;2.20;1.40;;;;;;;-4.40;100.00;101313.34;5023918;28;20823;-76
2021/12/25 06:54:07;;;;;;;1.80;1.10;;;;;;;-4.25;100.00;101293.28;5022285;28;20207;-77
2021/12/25 06:56:33;;;;;;;3.50;2.27;;;;;;;-3.79;100.00;101404.97;5024398;28;20194;-77
2021/12/25 06:58:58;;;;;;;6.33;3.03;;;;;;;-4.87;100.00;101214.91;5020194;28;20379;-77
2021/12/25 07:01:24;;;;;;;3.10;2.00;;;;;;;-5.73;100.00;101104.88;5020248;28;20213;-77
2021/12/25 07:03:49;;;;;;;4.00;2.30;;;;;;;-3.90;100.00;101379.41;5021330;28;22977;-77
2021/12/25 07:06:15;;;;;;;5.80;3.17;;;;;;;-4.62;100.00;101261.44;5026023;28;20271;-76
2021/12/25 07:08:40;;;;;;;5.03;3.20;;;;;;;-3.89;100.00;101345.25;5016712;28;20235;-76
2021/12/25 07:11:06;;;;;;;3.47;2.70;;;;;;;-5.13;100.00;101158.06;5020947;28;20180;-76
2021/12/25 07:13:31;;;;;;;3.03;1.80;;;;;;;-4.51;100.00;101297.47;5023761;28;20253;-76
2021/12/25 07:15:57;;;;;;;2.00;1.10;;;;;;;-4.47;100.00;101292.88;5023873;28;20188;-76
2021/12/25 07:18:22;;;;;;;2.00;1.20;;;;;;;-4.38;100.00;101308.03;5021312;28;20187;-77
2021/12/25 07:20:48;;;;;;;1.80;1.10;;;;;;;-4.29;100.00;101309.28;5024118;28;20795;-76
2021/12/25 07:23:18;;;;;;;1.80;1.30;;;;;;;-3.75;100.00;101428.28;5025316;28;20176;-75
2021/12/25 07:25:44;;;;;;;3.47;1.50;;;;;;;-3.55;100.00;101429.72;5024286;28;20441;-75
2021/12/25 07:28:10;;;;;;;1.47;1.10;;;;;;;-3.39;100.00;101423.53;5024121;28;21036;-75
2021/12/25 07:30:35;;;;;;;3.53;1.03;;;;;;;-3.89;100.00;101365.38;5018983;28;20595;-75
2021/12/25 07:33:02;;;;;;;1.40;0.80;;;;;;;-3.47;100.00;101431.84;5023828;28;20846;-75
2021/12/25 07:35:27;;;;;;;1.00;0.80;;;;;;;-3.89;100.00;101396.81;5026465;28;20286;-74
2021/12/25 07:37:54;;;;;;;0.87;0.70;;;;;;;-4.40;100.00;101297.66;5022676;28;20453;-75
2021/12/25 07:40:19;;;;;;;2.30;0.80;;;;;;;-4.38;100.00;101318.53;5020832;28;20239;-75
2021/12/25 07:42:45;;;;;;;1.63;0.70;;;;;;;-4.02;100.00;101394.09;5025017;28;20701;-75
2021/12/25 07:45:11;;;;;;;1.03;0.70;;;;;;;-4.06;100.00;101374.22;5027813;28;20242;-75
2021/12/25 07:47:41;;;;;;;1.53;0.73;;;;;;;-4.41;100.00;101314.31;5032488;28;20565;-75
2021/12/25 07:50:08;;;;;;;1.10;1.00;;;;;;;-4.05;100.00;101411.75;5028660;28;20442;-75
2021/12/25 07:52:34;;;;;;;1.30;0.73;;;;;;;-4.32;100.00;101410.66;5028018;28;20477;-74
2021/12/25 07:54:59;;;;;;;3.43;1.00;;;;;;;-3.80;100.00;101468.81;5025911;28;21889;-74
2021/12/25 07:57:25;;;;;;;4.77;0.70;;;;;;;-4.00;100.00;101404.47;5021037;28;20184;-74
2021/12/25 07:59:50;;;;;;;1.10;0.60;;;;;;;-3.93;100.00;101430.25;5026983;28;20196;-74
2021/12/25 08:02:16;;;;;;;1.80;1.00;;;;;;;-4.00;100.00;101428.91;5023555;28;20668;-75
2021/12/25 08:04:41;;;;;;;2.23;1.40;;;;;;;-4.11;100.00;101441.78;5027144;28;20216;-74
2021/12/25 08:07:07;;;;;;;1.80;1.00;;;;;;;-4.36;100.00;101341.06;5025913;28;20188;-74
2021/12/25 08:09:32;;;;;;;0.90;0.90;;;;;;;-5.63;100.00;101177.50;5023432;28;20184;-74
2021/12/25 08:12:00;;;;;;;1.90;0.90;;;;;;;-4.96;100.00;101290.50;5020459;28;20267;-75
2021/12/25 08:14:27;;;;;;;3.37;1.47;;;;;;;-3.93;100.00;101479.19;5027058;28;20215;-74
2021/12/25 08:16:54;;;;;;;2.90;1.10;;;;;;;-4.03;100.00;101473.63;5023695;28;20809;-74
2021/12/25 08:19:21;;;;;;;2.47;2.00;;;;;;;-4.69;100.00;101338.63;5026149;28;20443;-74
2021/12/25 08:21:46;;;;;;;1.20;1.10;;;;;;;-4.49;100.00;101402.94;5018401;28;20496;-74
2021/12/25 08:24:12;;;;;;;3.58;1.08;;;;;;;-3.70;100.00;101468.19;5010752;28;20873;-74
2021/12/25 08:26:37;;;;;;;3.83;1.00;;;;;;;-4.33;100.00;101397.66;5019178;28;20422;-72
2021/12/25 08:29:02;;;;;;;1.40;1.00;;;;;;;-4.04;100.00;101443.13;5021928;28;21069;-72
2021/12/25 08:31:28;;;;;;;1.00;0.90;;;;;;;-4.40;100.00;101368.34;5021707;28;20188;-77
2021/12/25 08:33:53;;;;;;;2.10;0.97;;;;;;;-4.06;100.00;101458.09;5026401;28;20223;-73
2021/12/25 08:36:19;;;;;;;2.50;0.80;;;;;;;-4.10;100.00;101425.16;5019181;28;20195;-73
2021/12/25 08:38:44;;;;;;;1.97;1.00;;;;;;;-3.69;100.00;101474.28;5022168;28;20599;-73
2021/12/25 08:41:10;;;;;;;2.47;1.10;;;;;;;-4.00;100.00;101428.91;5022042;28;20219;-73
2021/12/25 08:43:45;;;;;;;2.77;1.47;;;;;;;-3.93;100.00;101435.47;5024679;28;20576;-74
2021/12/25 08:46:16;;;;;;;2.87;1.73;;;;;;;-4.01;100.00;101411.50;5018069;28;20180;-74
2021/12/25 08:48:41;;;;;;;2.27;1.70;;;;;;;-3.69;100.00;101450.69;5015077;28;20451;-74
2021/12/25 08:51:07;;;;;;;3.90;3.07;;;;;;;-3.25;100.00;101483.84;5019794;28;20529;-74
2021/12/25 08:53:33;;;;;;;2.17;1.90;;;;;;;-3.33;100.00;101505.31;5019167;28;20215;-74
2021/12/25 08:55:58;;;;;;;1.97;1.57;;;;;;;-3.97;100.00;101413.00;5025944;28;20198;-74
2021/12/25 08:58:25;;;;;;;2.00;1.10;;;;;;;-3.34;100.00;101497.53;5022005;28;20219;-75
2021/12/25 09:00:55;;;;;;;1.80;1.20;;;;;;;-3.65;100.00;101410.22;5019278;28;20199;-73
2021/12/25 09:03:25;;;;;;;1.90;1.47;;;;;;;-3.23;100.00;101497.75;5024976;28;20442;-74
2021/12/25 09:05:54;;;;;;;3.23;1.53;;;;;;;-4.27;100.00;101349.31;5022889;28;20443;-75
2021/12/25 09:08:19;;;;;;;2.37;1.30;;;;;;;-3.69;100.00;101359.75;5021611;28;20449;-76
2021/12/25 09:10:44;;;;;;;4.73;1.23;;;;;;;-3.12;100.00;101466.44;5023186;28;20465;-75
2021/12/25 09:13:10;;;;;;;1.57;1.10;;;;;;;-3.14;100.00;101444.69;5023589;28;20191;-76
2021/12/25 09:15:36;;;;;;;1.23;1.10;;;;;;;-2.93;100.00;101491.53;5026398;28;20253;-75
2021/12/25 09:18:01;;;;;;;3.87;1.07;;;;;;;-2.80;100.00;101501.19;5022158;28;20191;-77
2021/12/25 09:20:27;;;;;;;2.00;1.00;;;;;;;-3.22;100.00;101378.72;5021381;28;20215;-77
2021/12/25 09:22:52;;;;;;;1.37;0.90;;;;;;;-3.35;100.00;101398.81;5023347;28;20188;-76
2021/12/25 09:25:18;;;;;;;1.30;1.00;;;;;;;-3.13;100.00;101422.75;5022318;28;20264;-75
2021/12/25 09:27:43;;;;;;;1.93;1.13;;;;;;;-2.35;100.00;101522.81;5022606;28;20198;-75
2021/12/25 09:30:10;;;;;;;2.00;1.20;;;;;;;-2.50;100.00;101500.16;5020051;28;20846;-74
2021/12/25 09:32:35;;;;;;;3.57;1.60;;;;;;;-2.83;100.00;101453.28;5018770;28;20183;-73
2021/12/25 09:35:01;;;;;;;2.77;1.00;;;;;;;-2.96;100.00;101426.94;5024629;28;20488;-75
2021/12/25 09:37:28;;;;;;;2.07;1.13;;;;;;;-2.63;100.00;101441.47;5024149;28;21363;-73
2021/12/25 09:39:53;;;;;;;2.50;1.07;;;;;;;-2.91;100.00;101398.63;5018696;28;20454;-73
2021/12/25 09:42:22;;;;;;;1.60;1.50;;;;;;;-2.73;100.00;101423.69;5024144;28;20500;-72
2021/12/25 09:44:47;;;;;;;1.40;1.27;;;;;;;-2.35;100.00;101472.91;5021062;28;21030;-74
2021/12/25 09:47:12;;;;;;;3.73;1.70;;;;;;;-2.19;100.00;101482.44;5023726;28;20931;-73
2021/12/25 09:49:38;;;;;;;5.23;1.60;;;;;;;-2.29;100.00;101461.97;5025384;28;20737;-73
2021/12/25 09:52:03;;;;;;;2.90;1.03;;;;;;;-2.02;100.00;101532.09;5014249;28;20238;-73
2021/12/25 09:54:31;;;;;;;1.90;1.27;;;;;;;-2.42;100.00;101389.34;5009476;28;20354;-72
2021/12/25 09:56:58;;;;;;;3.10;1.90;;;;;;;-2.12;100.00;101467.91;5007127;28;20477;-71
2021/12/25 09:59:24;;;;;;;4.33;3.00;;;;;;;-2.09;100.00;101471.19;5001461;28;20473;-71
2021/12/25 10:01:53;;;;;;;28.13;14.23;;;;;;;-3.79;100.00;101179.53;4994621;28;20493;-72
2021/12/25 10:04:34;;;;;;;9.30;6.00;;;;;;;-1.55;100.00;101530.72;4977343;28;20548;-71
2021/12/25 10:07:31;;;;;;;31.50;15.90;;;;;;;-1.66;100.00;101534.06;5009225;28;20449;-72
2021/12/25 10:10:07;;;;;;;9.80;6.20;;;;;;;-2.16;100.00;101466.47;5022574;28;20454;-72
2021/12/25 10:12:53;;;;;;;3.37;1.70;;;;;;;-1.72;100.00;101516.06;5024587;28;20791;-72
2021/12/25 10:15:22;;;;;;;3.93;2.90;;;;;;;-1.79;100.00;101471.88;5023917;28;20978;-73
2021/12/25 10:17:50;;;;;;;5.13;2.67;;;;;;;-1.72;100.00;101483.69;5026070;28;20509;-73
2021/12/25 10:20:25;;;;;;;2.60;1.93;;;;;;;-1.62;100.00;101485.59;5027167;28;20451;-72
2021/12/25 10:23:08;;;;;;;2.17;1.77;;;;;;;-1.40;100.00;101521.78;5020473;28;20430;-73
2021/12/25 10:25:58;;;;;;;1.97;1.77;;;;;;;-1.28;100.00;101501.69;5027196;28;20542;-73
2021/12/25 10:28:28;;;;;;;2.60;1.83;;;;;;;-1.38;100.00;101519.06;5024311;28;20430;-74
2021/12/25 10:31:11;;;;;;;4.07;1.60;;;;;;;-1.17;100.00;101514.09;5026982;28;20438;-73
2021/12/25 10:33:41;;;;;;;2.90;1.00;;;;;;;-1.15;100.00;101522.75;5021069;28;20466;-73
2021/12/25 10:36:30;;;;;;;1.87;1.10;;;;;;;-1.03;100.00;101521.91;5024252;28;20485;-75
2021/12/25 10:39:00;;;;;;;1.90;0.87;;;;;;;-0.99;100.00;101527.78;5028782;28;20438;-74
2021/12/25 10:41:26;;;;;;;3.00;0.97;;;;;;;-1.08;100.00;101528.44;5021701;28;20478;-74
2021/12/25 10:44:09;;;;;;;2.70;1.00;;;;;;;-0.99;100.00;101519.88;5019310;28;20471;-75
2021/12/25 10:46:57;;;;;;;1.00;0.80;;;;;;;-1.04;100.00;101487.75;5031485;28;20825;-72
2021/12/25 10:49:30;;;;;;;2.80;1.30;;;;;;;-0.84;100.00;101524.09;5024006;28;20780;-72
2021/12/25 10:52:08;;;;;;;2.53;1.50;;;;;;;-1.00;100.00;101497.97;5023016;28;20881;-71
2021/12/25 10:54:43;;;;;;;3.95;1.70;;;;;;;-1.10;100.00;101488.19;5013845;28;20431;-72
2021/12/25 10:57:09;;;;;;;2.20;1.50;;;;;;;-1.07;100.00;101461.66;5021333;28;20183;-72
2021/12/25 10:59:43;;;;;;;7.17;3.90;;;;;;;-0.69;100.00;101514.25;5024123;28;20798;-72
2021/12/25 11:02:08;;;;;;;5.87;4.20;;;;;;;-1.02;100.00;101485.88;5022900;28;20529;-72
2021/12/25 11:04:36;;;;;;;6.50;3.57;;;;;;;-0.66;100.00;101502.66;5016228;28;21343;-74
2021/12/25 11:07:16;;;;;;;5.07;3.03;;;;;;;-0.78;100.00;101499.94;5017208;28;20315;-74
2021/12/25 11:10:03;;;;;;;5.97;3.60;;;;;;;-0.69;100.00;101498.44;5035883;28;20442;-75
2021/12/25 11:12:30;;;;;;;3.23;2.03;;;;;;;-0.80;100.00;101464.97;5020602;28;20553;-74
2021/12/25 11:15:09;;;;;;;6.97;3.10;;;;;;;-0.33;100.00;101475.66;5030008;28;20985;-72
2021/12/25 11:17:39;;;;;;;1.40;1.30;;;;;;;-0.83;100.00;101478.34;5031197;28;20442;-73
2021/12/25 11:20:05;;;;;;;3.63;2.10;;;;;;;-0.80;100.00;101454.44;5046581;28;20443;-73
2021/12/25 11:22:51;;;;;;;1.63;1.47;;;;;;;-0.66;100.00;101466.63;5028360;28;20437;-74
2021/12/25 11:25:20;;;;;;;7.00;4.00;;;;;;;-0.63;100.00;101444.47;5032488;28;20547;-72
2021/12/25 11:27:47;;;;;;;5.73;4.00;;;;;;;-0.27;100.00;101518.22;5031073;28;20444;-72
2021/12/25 11:30:13;;;;;;;5.23;3.40;;;;;;;-0.63;100.00;101450.59;5026407;28;20446;-72
2021/12/25 11:32:38;;;;;;;3.20;2.83;;;;;;;-0.36;100.00;101492.53;5028702;28;20439;-72
2021/12/25 11:35:05;;;;;;;3.60;2.40;;;;;;;-0.18;100.00;101484.22;5029567;28;20233;-73
2021/12/25 11:37:31;;;;;;;3.50;1.87;;;;;;;-0.40;100.00;101509.53;5030481;28;20283;-72
2021/12/25 11:39:56;;;;;;;2.77;2.10;;;;;;;-0.88;100.00;101398.00;5028041;28;20524;-74
2021/12/25 11:42:24;;;;;;;2.70;1.70;;;;;;;-0.91;100.00;101352.47;5021994;28;20294;-72
2021/12/25 11:44:53;;;;;;;1.53;1.20;;;;;;;-0.30;100.00;101507.88;5020336;28;20497;-72
2021/12/25 11:47:41;;;;;;;1.00;0.80;;;;;;;-0.11;100.00;101509.19;5018077;28;20623;-72
2021/12/25 11:50:17;;;;;;;1.50;1.00;;;;;;;-0.30;100.00;101486.81;5027776;28;21148;-72
2021/12/25 11:53:07;;;;;;;2.43;1.07;;;;;;;-0.18;100.00;101495.59;5019024;28;20961;-72
2021/12/25 11:58:39;;;;;;;1.23;0.90;;;;;;;-0.09;100.00;101494.09;5029938;28;20425;-70
2021/12/25 12:01:18;;;;;;;4.10;1.50;;;;;;;0.05;100.00;101488.63;5026620;28;21467;-70
2021/12/25 12:03:52;;;;;;;3.03;0.83;;;;;;;-0.06;100.00;101489.44;5014449;28;20470;-71
2021/12/25 12:06:18;;;;;;;3.27;0.93;;;;;;;-0.01;100.00;101497.00;5016990;28;20434;-72
2021/12/25 12:08:52;;;;;;;2.50;0.80;;;;;;;-0.04;100.00;101482.25;5027678;28;20901;-72
2021/12/25 12:11:26;;;;;;;4.47;0.93;;;;;;;-0.48;100.00;101431.00;5022534;28;20950;-73
2021/12/25 12:14:15;;;;;;;2.73;0.73;;;;;;;-0.16;100.00;101488.44;5023504;28;20464;-72
2021/12/25 12:16:46;;;;;;;2.20;0.80;;;;;;;0.00;100.00;101477.59;5014749;28;20438;-71
2021/12/25 12:19:29;;;;;;;3.23;0.90;;;;;;;-0.04;100.00;101489.31;5021967;28;20974;-71
2021/12/25 12:21:55;;;;;;;2.23;0.93;;;;;;;-0.26;100.00;101442.59;5025073;28;20466;-70
2021/12/25 12:27:04;;;;;;;3.13;1.10;;;;;;;-0.06;100.00;101476.25;5021442;28;20175;-71
2021/12/25 12:29:38;;;;;;;1.43;0.87;;;;;;;0.01;100.00;101487.19;5011485;28;20541;-71
2021/12/25 12:32:05;;;;;;;2.23;0.97;;;;;;;-0.19;100.00;101459.66;5014498;28;20520;-71
2021/12/25 12:34:39;;;;;;;5.23;0.80;;;;;;;-0.14;100.00;101448.78;5009591;28;20575;-71
2021/12/25 12:37:13;;;;;;;3.03;0.97;;;;;;;0.10;100.00;101477.75;4987431;28;20537;-71
2021/12/25 12:40:05;;;;;;;2.40;1.10;;;;;;;-0.57;100.00;101379.00;5006099;28;20529;-71
2021/12/25 12:42:40;;;;;;;1.10;1.00;;;;;;;0.09;100.00;101484.81;5016232;28;20466;-71
2021/12/25 12:45:23;;;;;;;2.17;1.40;;;;;;;0.32;100.00;101482.22;5014071;28;20879;-71
2021/12/25 12:48:12;;;;;;;1.60;1.50;;;;;;;0.24;100.00;101480.19;5021909;28;20435;-71
2021/12/25 12:50:40;;;;;;;1.60;1.10;;;;;;;0.25;100.00;101483.66;5022981;28;20812;-71
2021/12/25 12:53:07;;;;;;;3.33;1.20;;;;;;;0.33;100.00;101478.66;5024969;28;20497;-71